sensor_id;sensor_type;location;lat;lon;timestamp;P1;durP1;ratioP1;P2;durP2;ratioP2
9960;SDS011;5021;51.506;11.320;2023-01-08T00:00:39;6.10;;;5.50;;
9960;SDS011;5021;51.506;11.320;2023-01-08T00:03:05;5.90;;;5.20;;
9960;SDS011;5021;51.506;11.320;2023-01-08T00:05:31;6.83;;;6.13;;
9960;SDS011;5021;51.506;11.320;2023-01-08T00:07:57;6.53;;;5.87;;
9960;SDS011;5021;51.506;11.320;2023-01-08T00:10:23;6.37;;;5.77;;
9960;SDS011;5021;51.506;11.320;2023-01-08T00:12:49;6.17;;;5.57;;
9960;SDS011;5021;51.506;11.320;2023-01-08T00:15:15;5.77;;;5.17;;
9960;SDS011;5021;51.506;11.320;2023-01-08T00:17:41;6.00;;;5.40;;
9960;SDS011;5021;51.506;11.320;2023-01-08T00:20:07;6.87;;;5.50;;
9960;SDS011;5021;51.506;11.320;2023-01-08T00:22:33;6.10;;;5.57;;
9960;SDS011;5021;51.506;11.320;2023-01-08T00:24:59;6.00;;;5.40;;
9960;SDS011;5021;51.506;11.320;2023-01-08T00:27:25;6.23;;;5.63;;
9960;SDS011;5021;51.506;11.320;2023-01-08T00:29:50;6.30;;;5.33;;
9960;SDS011;5021;51.506;11.320;2023-01-08T00:32:16;6.30;;;5.70;;
9960;SDS011;5021;51.506;11.320;2023-01-08T00:34:42;6.13;;;5.53;;
9960;SDS011;5021;51.506;11.320;2023-01-08T00:37:08;6.83;;;5.63;;
9960;SDS011;5021;51.506;11.320;2023-01-08T00:39:34;7.60;;;5.50;;
9960;SDS011;5021;51.506;11.320;2023-01-08T00:42:00;7.07;;;5.83;;
9960;SDS011;5021;51.506;11.320;2023-01-08T00:44:26;6.20;;;5.60;;
9960;SDS011;5021;51.506;11.320;2023-01-08T00:46:52;6.47;;;5.77;;
9960;SDS011;5021;51.506;11.320;2023-01-08T00:49:18;6.67;;;5.70;;
9960;SDS011;5021;51.506;11.320;2023-01-08T00:51:43;9.73;;;6.07;;
9960;SDS011;5021;51.506;11.320;2023-01-08T00:54:10;6.20;;;5.47;;
9960;SDS011;5021;51.506;11.320;2023-01-08T00:56:36;7.80;;;6.47;;
9960;SDS011;5021;51.506;11.320;2023-01-08T00:59:02;6.63;;;5.80;;
9960;SDS011;5021;51.506;11.320;2023-01-08T01:01:27;5.87;;;5.37;;
9960;SDS011;5021;51.506;11.320;2023-01-08T01:03:53;6.83;;;6.13;;
9960;SDS011;5021;51.506;11.320;2023-01-08T01:06:20;6.43;;;5.83;;
9960;SDS011;5021;51.506;11.320;2023-01-08T01:08:45;6.93;;;5.60;;
9960;SDS011;5021;51.506;11.320;2023-01-08T01:11:16;6.00;;;5.40;;
9960;SDS011;5021;51.506;11.320;2023-01-08T01:13:43;5.90;;;5.30;;
9960;SDS011;5021;51.506;11.320;2023-01-08T01:16:09;6.27;;;5.33;;
9960;SDS011;5021;51.506;11.320;2023-01-08T01:18:35;6.10;;;5.37;;
9960;SDS011;5021;51.506;11.320;2023-01-08T01:21:00;6.13;;;5.53;;
9960;SDS011;5021;51.506;11.320;2023-01-08T01:23:26;5.93;;;5.37;;
9960;SDS011;5021;51.506;11.320;2023-01-08T01:25:52;6.37;;;5.40;;
9960;SDS011;5021;51.506;11.320;2023-01-08T01:28:18;6.00;;;5.40;;
9960;SDS011;5021;51.506;11.320;2023-01-08T01:30:44;5.73;;;5.23;;
9960;SDS011;5021;51.506;11.320;2023-01-08T01:33:10;5.50;;;4.93;;
9960;SDS011;5021;51.506;11.320;2023-01-08T01:35:36;7.03;;;5.80;;
9960;SDS011;5021;51.506;11.320;2023-01-08T01:38:02;7.30;;;5.53;;
9960;SDS011;5021;51.506;11.320;2023-01-08T01:40:28;6.03;;;5.40;;
9960;SDS011;5021;51.506;11.320;2023-01-08T01:42:54;5.73;;;5.23;;
9960;SDS011;5021;51.506;11.320;2023-01-08T01:45:22;6.27;;;5.67;;
9960;SDS011;5021;51.506;11.320;2023-01-08T01:48:02;6.17;;;5.57;;
9960;SDS011;5021;51.506;11.320;2023-01-08T01:50:32;6.47;;;5.87;;
9960;SDS011;5021;51.506;11.320;2023-01-08T01:53:04;6.57;;;5.97;;
9960;SDS011;5021;51.506;11.320;2023-01-08T01:55:32;6.40;;;5.60;;
9960;SDS011;5021;51.506;11.320;2023-01-08T01:58:20;6.10;;;5.50;;
9960;SDS011;5021;51.506;11.320;2023-01-08T02:00:47;5.97;;;5.40;;
9960;SDS011;5021;51.506;11.320;2023-01-08T02:03:14;5.60;;;5.10;;
9960;SDS011;5021;51.506;11.320;2023-01-08T02:06:02;6.00;;;5.40;;
9960;SDS011;5021;51.506;11.320;2023-01-08T02:11:22;5.87;;;5.27;;
9960;SDS011;5021;51.506;11.320;2023-01-08T02:13:54;7.27;;;5.70;;
9960;SDS011;5021;51.506;11.320;2023-01-08T02:18:56;5.50;;;5.00;;
9960;SDS011;5021;51.506;11.320;2023-01-08T02:21:32;6.17;;;5.57;;
9960;SDS011;5021;51.506;11.320;2023-01-08T02:24:19;5.87;;;5.23;;
9960;SDS011;5021;51.506;11.320;2023-01-08T02:26:48;6.00;;;5.40;;
9960;SDS011;5021;51.506;11.320;2023-01-08T02:29:18;6.20;;;5.60;;
9960;SDS011;5021;51.506;11.320;2023-01-08T02:31:45;7.90;;;5.87;;
9960;SDS011;5021;51.506;11.320;2023-01-08T02:34:11;6.37;;;5.60;;
9960;SDS011;5021;51.506;11.320;2023-01-08T02:36:41;6.13;;;5.47;;
9960;SDS011;5021;51.506;11.320;2023-01-08T02:39:09;5.73;;;5.13;;
9960;SDS011;5021;51.506;11.320;2023-01-08T02:41:42;5.63;;;5.13;;
9960;SDS011;5021;51.506;11.320;2023-01-08T02:44:12;5.90;;;5.33;;
9960;SDS011;5021;51.506;11.320;2023-01-08T02:46:41;5.53;;;5.03;;
9960;SDS011;5021;51.506;11.320;2023-01-08T02:49:08;6.20;;;4.80;;
9960;SDS011;5021;51.506;11.320;2023-01-08T02:51:46;5.50;;;5.00;;
9960;SDS011;5021;51.506;11.320;2023-01-08T02:54:14;5.07;;;4.57;;
9960;SDS011;5021;51.506;11.320;2023-01-08T02:56:42;5.87;;;4.90;;
9960;SDS011;5021;51.506;11.320;2023-01-08T02:59:09;6.20;;;4.30;;
9960;SDS011;5021;51.506;11.320;2023-01-08T03:01:36;5.30;;;4.67;;
9960;SDS011;5021;51.506;11.320;2023-01-08T03:04:05;5.23;;;4.73;;
9960;SDS011;5021;51.506;11.320;2023-01-08T03:06:33;6.67;;;5.30;;
9960;SDS011;5021;51.506;11.320;2023-01-08T03:08:59;6.80;;;5.30;;
9960;SDS011;5021;51.506;11.320;2023-01-08T03:11:28;5.43;;;4.93;;
9960;SDS011;5021;51.506;11.320;2023-01-08T03:13:59;5.50;;;5.00;;
9960;SDS011;5021;51.506;11.320;2023-01-08T03:16:44;5.30;;;4.80;;
9960;SDS011;5021;51.506;11.320;2023-01-08T03:19:13;4.93;;;4.50;;
9960;SDS011;5021;51.506;11.320;2023-01-08T03:21:41;5.63;;;4.40;;
9960;SDS011;5021;51.506;11.320;2023-01-08T03:24:07;5.20;;;4.70;;
9960;SDS011;5021;51.506;11.320;2023-01-08T03:26:35;5.57;;;4.80;;
9960;SDS011;5021;51.506;11.320;2023-01-08T03:29:02;5.00;;;4.47;;
9960;SDS011;5021;51.506;11.320;2023-01-08T03:31:29;6.23;;;5.20;;
9960;SDS011;5021;51.506;11.320;2023-01-08T03:33:58;4.90;;;4.40;;
9960;SDS011;5021;51.506;11.320;2023-01-08T03:36:25;5.23;;;4.73;;
9960;SDS011;5021;51.506;11.320;2023-01-08T03:41:39;5.13;;;4.63;;
9960;SDS011;5021;51.506;11.320;2023-01-08T03:44:05;5.33;;;4.53;;
9960;SDS011;5021;51.506;11.320;2023-01-08T03:46:32;4.97;;;4.57;;
9960;SDS011;5021;51.506;11.320;2023-01-08T03:48:58;5.63;;;5.03;;
9960;SDS011;5021;51.506;11.320;2023-01-08T03:51:25;4.97;;;4.47;;
9960;SDS011;5021;51.506;11.320;2023-01-08T03:53:52;5.00;;;4.33;;
9960;SDS011;5021;51.506;11.320;2023-01-08T03:56:19;5.30;;;4.80;;
9960;SDS011;5021;51.506;11.320;2023-01-08T03:58:45;6.33;;;4.77;;
9960;SDS011;5021;51.506;11.320;2023-01-08T04:01:11;5.97;;;5.00;;
9960;SDS011;5021;51.506;11.320;2023-01-08T04:03:37;5.03;;;4.60;;
9960;SDS011;5021;51.506;11.320;2023-01-08T04:06:03;5.60;;;5.10;;
9960;SDS011;5021;51.506;11.320;2023-01-08T04:08:29;7.50;;;5.47;;
9960;SDS011;5021;51.506;11.320;2023-01-08T04:10:55;6.07;;;4.90;;
9960;SDS011;5021;51.506;11.320;2023-01-08T04:13:21;5.87;;;5.00;;
9960;SDS011;5021;51.506;11.320;2023-01-08T04:15:47;5.40;;;4.90;;
9960;SDS011;5021;51.506;11.320;2023-01-08T04:18:13;5.63;;;4.43;;
9960;SDS011;5021;51.506;11.320;2023-01-08T04:20:39;5.33;;;4.83;;
9960;SDS011;5021;51.506;11.320;2023-01-08T04:23:05;5.83;;;5.23;;
9960;SDS011;5021;51.506;11.320;2023-01-08T04:25:31;5.67;;;4.97;;
9960;SDS011;5021;51.506;11.320;2023-01-08T04:27:57;5.17;;;4.67;;
9960;SDS011;5021;51.506;11.320;2023-01-08T04:30:23;5.97;;;5.00;;
9960;SDS011;5021;51.506;11.320;2023-01-08T04:32:49;5.33;;;4.77;;
9960;SDS011;5021;51.506;11.320;2023-01-08T04:35:14;5.00;;;4.50;;
9960;SDS011;5021;51.506;11.320;2023-01-08T04:37:40;5.40;;;4.90;;
9960;SDS011;5021;51.506;11.320;2023-01-08T04:40:06;5.37;;;4.87;;
9960;SDS011;5021;51.506;11.320;2023-01-08T04:42:32;5.47;;;4.97;;
9960;SDS011;5021;51.506;11.320;2023-01-08T04:44:58;5.30;;;4.70;;
9960;SDS011;5021;51.506;11.320;2023-01-08T04:47:24;6.60;;;5.13;;
9960;SDS011;5021;51.506;11.320;2023-01-08T04:49:50;6.33;;;5.20;;
9960;SDS011;5021;51.506;11.320;2023-01-08T04:52:16;5.50;;;4.90;;
9960;SDS011;5021;51.506;11.320;2023-01-08T04:54:42;5.10;;;4.60;;
9960;SDS011;5021;51.506;11.320;2023-01-08T04:57:08;5.33;;;4.83;;
9960;SDS011;5021;51.506;11.320;2023-01-08T04:59:34;5.70;;;5.13;;
9960;SDS011;5021;51.506;11.320;2023-01-08T05:02:00;5.87;;;4.43;;
9960;SDS011;5021;51.506;11.320;2023-01-08T05:04:26;5.30;;;4.70;;
9960;SDS011;5021;51.506;11.320;2023-01-08T05:06:51;6.57;;;4.97;;
9960;SDS011;5021;51.506;11.320;2023-01-08T05:09:17;5.10;;;4.60;;
9960;SDS011;5021;51.506;11.320;2023-01-08T05:11:43;4.97;;;4.37;;
9960;SDS011;5021;51.506;11.320;2023-01-08T05:14:09;4.97;;;4.47;;
9960;SDS011;5021;51.506;11.320;2023-01-08T05:16:35;5.00;;;4.10;;
9960;SDS011;5021;51.506;11.320;2023-01-08T05:19:01;5.27;;;4.20;;
9960;SDS011;5021;51.506;11.320;2023-01-08T05:21:27;5.33;;;4.23;;
9960;SDS011;5021;51.506;11.320;2023-01-08T05:23:53;6.83;;;4.10;;
9960;SDS011;5021;51.506;11.320;2023-01-08T05:26:19;4.33;;;3.90;;
9960;SDS011;5021;51.506;11.320;2023-01-08T05:28:45;5.73;;;4.30;;
9960;SDS011;5021;51.506;11.320;2023-01-08T05:31:11;5.00;;;4.50;;
9960;SDS011;5021;51.506;11.320;2023-01-08T05:33:37;5.80;;;5.20;;
9960;SDS011;5021;51.506;11.320;2023-01-08T05:36:04;6.50;;;4.97;;
9960;SDS011;5021;51.506;11.320;2023-01-08T05:38:31;5.40;;;4.77;;
9960;SDS011;5021;51.506;11.320;2023-01-08T05:40:57;5.47;;;4.90;;
9960;SDS011;5021;51.506;11.320;2023-01-08T05:43:22;5.53;;;4.97;;
9960;SDS011;5021;51.506;11.320;2023-01-08T05:45:48;6.57;;;5.27;;
9960;SDS011;5021;51.506;11.320;2023-01-08T05:48:14;5.60;;;4.90;;
9960;SDS011;5021;51.506;11.320;2023-01-08T05:50:40;5.47;;;4.80;;
9960;SDS011;5021;51.506;11.320;2023-01-08T05:53:06;5.57;;;5.07;;
9960;SDS011;5021;51.506;11.320;2023-01-08T05:55:32;6.47;;;4.97;;
9960;SDS011;5021;51.506;11.320;2023-01-08T05:58:02;5.67;;;4.57;;
9960;SDS011;5021;51.506;11.320;2023-01-08T06:00:28;5.50;;;5.00;;
9960;SDS011;5021;51.506;11.320;2023-01-08T06:02:54;5.23;;;4.73;;
9960;SDS011;5021;51.506;11.320;2023-01-08T06:05:20;5.97;;;4.70;;
9960;SDS011;5021;51.506;11.320;2023-01-08T06:07:46;5.50;;;4.90;;
9960;SDS011;5021;51.506;11.320;2023-01-08T06:10:12;6.00;;;4.63;;
9960;SDS011;5021;51.506;11.320;2023-01-08T06:12:38;5.13;;;4.63;;
9960;SDS011;5021;51.506;11.320;2023-01-08T06:15:04;5.40;;;4.90;;
9960;SDS011;5021;51.506;11.320;2023-01-08T06:17:30;5.27;;;4.43;;
9960;SDS011;5021;51.506;11.320;2023-01-08T06:19:56;6.43;;;5.80;;
9960;SDS011;5021;51.506;11.320;2023-01-08T06:22:22;15.77;;;11.77;;
9960;SDS011;5021;51.506;11.320;2023-01-08T06:24:48;5.83;;;5.17;;
9960;SDS011;5021;51.506;11.320;2023-01-08T06:27:14;5.70;;;4.57;;
9960;SDS011;5021;51.506;11.320;2023-01-08T06:29:40;6.07;;;5.43;;
9960;SDS011;5021;51.506;11.320;2023-01-08T06:32:06;5.10;;;4.17;;
9960;SDS011;5021;51.506;11.320;2023-01-08T06:34:32;7.77;;;5.90;;
9960;SDS011;5021;51.506;11.320;2023-01-08T06:36:57;7.53;;;6.53;;
9960;SDS011;5021;51.506;11.320;2023-01-08T06:39:23;6.43;;;5.83;;
9960;SDS011;5021;51.506;11.320;2023-01-08T06:41:49;6.50;;;5.40;;
9960;SDS011;5021;51.506;11.320;2023-01-08T06:44:15;6.17;;;5.30;;
9960;SDS011;5021;51.506;11.320;2023-01-08T06:46:41;7.70;;;6.83;;
9960;SDS011;5021;51.506;11.320;2023-01-08T06:49:07;7.10;;;6.40;;
9960;SDS011;5021;51.506;11.320;2023-01-08T06:51:34;7.00;;;5.37;;
9960;SDS011;5021;51.506;11.320;2023-01-08T06:54:00;6.53;;;5.60;;
9960;SDS011;5021;51.506;11.320;2023-01-08T06:56:26;6.40;;;5.73;;
9960;SDS011;5021;51.506;11.320;2023-01-08T06:58:52;6.60;;;5.90;;
9960;SDS011;5021;51.506;11.320;2023-01-08T07:01:18;6.20;;;5.47;;
9960;SDS011;5021;51.506;11.320;2023-01-08T07:03:44;6.43;;;5.80;;
9960;SDS011;5021;51.506;11.320;2023-01-08T07:06:14;6.23;;;5.63;;
9960;SDS011;5021;51.506;11.320;2023-01-08T07:08:40;5.90;;;5.30;;
9960;SDS011;5021;51.506;11.320;2023-01-08T07:11:06;6.20;;;5.60;;
9960;SDS011;5021;51.506;11.320;2023-01-08T07:13:32;6.10;;;5.50;;
9960;SDS011;5021;51.506;11.320;2023-01-08T07:16:03;5.60;;;5.07;;
9960;SDS011;5021;51.506;11.320;2023-01-08T07:18:29;6.43;;;5.60;;
9960;SDS011;5021;51.506;11.320;2023-01-08T07:20:55;6.20;;;5.57;;
9960;SDS011;5021;51.506;11.320;2023-01-08T07:23:21;6.57;;;5.60;;
9960;SDS011;5021;51.506;11.320;2023-01-08T07:25:47;7.10;;;6.23;;
9960;SDS011;5021;51.506;11.320;2023-01-08T07:28:13;6.40;;;4.83;;
9960;SDS011;5021;51.506;11.320;2023-01-08T07:30:39;6.23;;;5.63;;
9960;SDS011;5021;51.506;11.320;2023-01-08T07:33:05;5.97;;;5.37;;
9960;SDS011;5021;51.506;11.320;2023-01-08T07:35:31;7.03;;;5.97;;
9960;SDS011;5021;51.506;11.320;2023-01-08T07:37:56;6.37;;;5.60;;
9960;SDS011;5021;51.506;11.320;2023-01-08T07:40:22;6.10;;;5.50;;
9960;SDS011;5021;51.506;11.320;2023-01-08T07:42:56;6.77;;;6.03;;
9960;SDS011;5021;51.506;11.320;2023-01-08T07:45:22;5.77;;;5.13;;
9960;SDS011;5021;51.506;11.320;2023-01-08T07:47:48;6.77;;;6.07;;
9960;SDS011;5021;51.506;11.320;2023-01-08T07:50:14;6.03;;;5.47;;
9960;SDS011;5021;51.506;11.320;2023-01-08T07:52:39;8.30;;;6.00;;
9960;SDS011;5021;51.506;11.320;2023-01-08T07:55:05;6.50;;;5.70;;
9960;SDS011;5021;51.506;11.320;2023-01-08T07:57:31;6.50;;;5.87;;
9960;SDS011;5021;51.506;11.320;2023-01-08T07:59:57;7.23;;;6.53;;
9960;SDS011;5021;51.506;11.320;2023-01-08T08:02:23;6.90;;;6.17;;
9960;SDS011;5021;51.506;11.320;2023-01-08T08:04:49;8.13;;;7.10;;
9960;SDS011;5021;51.506;11.320;2023-01-08T08:07:15;8.80;;;6.33;;
9960;SDS011;5021;51.506;11.320;2023-01-08T08:09:41;7.00;;;6.30;;
9960;SDS011;5021;51.506;11.320;2023-01-08T08:12:07;6.53;;;5.93;;
9960;SDS011;5021;51.506;11.320;2023-01-08T08:14:33;7.67;;;6.83;;
9960;SDS011;5021;51.506;11.320;2023-01-08T08:16:59;7.40;;;6.70;;
9960;SDS011;5021;51.506;11.320;2023-01-08T08:19:25;7.97;;;7.17;;
9960;SDS011;5021;51.506;11.320;2023-01-08T08:21:51;8.40;;;7.50;;
9960;SDS011;5021;51.506;11.320;2023-01-08T08:24:17;9.93;;;8.73;;
9960;SDS011;5021;51.506;11.320;2023-01-08T08:26:43;9.27;;;8.23;;
9960;SDS011;5021;51.506;11.320;2023-01-08T08:29:09;9.87;;;8.73;;
9960;SDS011;5021;51.506;11.320;2023-01-08T08:31:35;9.10;;;8.07;;
9960;SDS011;5021;51.506;11.320;2023-01-08T08:34:01;10.07;;;9.00;;
9960;SDS011;5021;51.506;11.320;2023-01-08T08:36:30;9.33;;;8.43;;
9960;SDS011;5021;51.506;11.320;2023-01-08T08:38:56;10.43;;;9.27;;
9960;SDS011;5021;51.506;11.320;2023-01-08T08:41:22;10.40;;;8.83;;
9960;SDS011;5021;51.506;11.320;2023-01-08T08:43:48;9.10;;;8.20;;
9960;SDS011;5021;51.506;11.320;2023-01-08T08:46:15;12.30;;;9.70;;
9960;SDS011;5021;51.506;11.320;2023-01-08T08:48:42;10.70;;;9.60;;
9960;SDS011;5021;51.506;11.320;2023-01-08T08:51:08;9.83;;;8.83;;
9960;SDS011;5021;51.506;11.320;2023-01-08T08:53:34;9.07;;;8.17;;
9960;SDS011;5021;51.506;11.320;2023-01-08T08:56:00;9.27;;;7.97;;
9960;SDS011;5021;51.506;11.320;2023-01-08T08:58:26;9.77;;;7.90;;
9960;SDS011;5021;51.506;11.320;2023-01-08T09:00:52;7.73;;;7.03;;
9960;SDS011;5021;51.506;11.320;2023-01-08T09:03:18;8.97;;;6.87;;
9960;SDS011;5021;51.506;11.320;2023-01-08T09:05:43;7.03;;;6.33;;
9960;SDS011;5021;51.506;11.320;2023-01-08T09:08:10;7.30;;;6.60;;
9960;SDS011;5021;51.506;11.320;2023-01-08T09:10:37;7.13;;;6.43;;
9960;SDS011;5021;51.506;11.320;2023-01-08T09:13:03;7.30;;;6.60;;
9960;SDS011;5021;51.506;11.320;2023-01-08T09:15:30;6.73;;;6.13;;
9960;SDS011;5021;51.506;11.320;2023-01-08T09:17:56;9.40;;;8.50;;
9960;SDS011;5021;51.506;11.320;2023-01-08T09:20:23;11.13;;;9.37;;
9960;SDS011;5021;51.506;11.320;2023-01-08T09:22:49;9.40;;;8.47;;
9960;SDS011;5021;51.506;11.320;2023-01-08T09:25:15;8.97;;;8.07;;
9960;SDS011;5021;51.506;11.320;2023-01-08T09:27:41;8.33;;;7.53;;
9960;SDS011;5021;51.506;11.320;2023-01-08T09:30:07;7.50;;;6.80;;
9960;SDS011;5021;51.506;11.320;2023-01-08T09:32:33;7.80;;;6.97;;
9960;SDS011;5021;51.506;11.320;2023-01-08T09:34:59;7.37;;;6.67;;
9960;SDS011;5021;51.506;11.320;2023-01-08T09:37:25;5.93;;;5.33;;
9960;SDS011;5021;51.506;11.320;2023-01-08T09:39:51;6.37;;;5.77;;
9960;SDS011;5021;51.506;11.320;2023-01-08T09:42:21;8.63;;;6.20;;
9960;SDS011;5021;51.506;11.320;2023-01-08T09:44:49;7.47;;;6.10;;
9960;SDS011;5021;51.506;11.320;2023-01-08T09:47:23;6.60;;;5.90;;
9960;SDS011;5021;51.506;11.320;2023-01-08T09:49:51;7.93;;;6.53;;
9960;SDS011;5021;51.506;11.320;2023-01-08T09:52:19;6.13;;;5.53;;
9960;SDS011;5021;51.506;11.320;2023-01-08T09:54:45;6.13;;;5.53;;
9960;SDS011;5021;51.506;11.320;2023-01-08T09:57:12;8.57;;;5.83;;
9960;SDS011;5021;51.506;11.320;2023-01-08T09:59:40;6.07;;;5.30;;
9960;SDS011;5021;51.506;11.320;2023-01-08T10:02:12;5.40;;;4.90;;
9960;SDS011;5021;51.506;11.320;2023-01-08T10:04:38;6.10;;;5.50;;
9960;SDS011;5021;51.506;11.320;2023-01-08T10:07:10;6.23;;;5.63;;
9960;SDS011;5021;51.506;11.320;2023-01-08T10:09:37;5.80;;;5.30;;
9960;SDS011;5021;51.506;11.320;2023-01-08T10:12:03;5.83;;;4.73;;
9960;SDS011;5021;51.506;11.320;2023-01-08T10:14:32;5.83;;;5.33;;
9960;SDS011;5021;51.506;11.320;2023-01-08T10:19:44;6.47;;;5.20;;
9960;SDS011;5021;51.506;11.320;2023-01-08T10:22:17;6.67;;;5.37;;
9960;SDS011;5021;51.506;11.320;2023-01-08T10:24:44;6.73;;;5.53;;
9960;SDS011;5021;51.506;11.320;2023-01-08T10:29:39;6.67;;;5.33;;
9960;SDS011;5021;51.506;11.320;2023-01-08T10:32:12;5.00;;;4.60;;
9960;SDS011;5021;51.506;11.320;2023-01-08T10:39:53;6.07;;;5.00;;
9960;SDS011;5021;51.506;11.320;2023-01-08T10:42:19;5.67;;;4.80;;
9960;SDS011;5021;51.506;11.320;2023-01-08T10:44:49;5.20;;;4.70;;
9960;SDS011;5021;51.506;11.320;2023-01-08T10:47:17;5.43;;;4.53;;
9960;SDS011;5021;51.506;11.320;2023-01-08T10:49:43;4.90;;;4.30;;
9960;SDS011;5021;51.506;11.320;2023-01-08T10:55:12;5.77;;;4.27;;
9960;SDS011;5021;51.506;11.320;2023-01-08T10:57:41;4.87;;;4.47;;
9960;SDS011;5021;51.506;11.320;2023-01-08T11:00:21;4.97;;;4.47;;
9960;SDS011;5021;51.506;11.320;2023-01-08T11:02:47;4.70;;;4.20;;
9960;SDS011;5021;51.506;11.320;2023-01-08T11:05:14;4.23;;;3.83;;
9960;SDS011;5021;51.506;11.320;2023-01-08T11:07:40;4.43;;;4.03;;
9960;SDS011;5021;51.506;11.320;2023-01-08T11:10:06;4.77;;;3.80;;
9960;SDS011;5021;51.506;11.320;2023-01-08T11:12:44;4.30;;;3.60;;
9960;SDS011;5021;51.506;11.320;2023-01-08T11:17:41;5.03;;;3.63;;
9960;SDS011;5021;51.506;11.320;2023-01-08T11:20:28;4.30;;;3.90;;
9960;SDS011;5021;51.506;11.320;2023-01-08T11:25:39;4.13;;;3.73;;
9960;SDS011;5021;51.506;11.320;2023-01-08T11:28:07;4.13;;;3.73;;
9960;SDS011;5021;51.506;11.320;2023-01-08T11:30:36;4.33;;;3.93;;
9960;SDS011;5021;51.506;11.320;2023-01-08T11:33:12;4.70;;;3.53;;
9960;SDS011;5021;51.506;11.320;2023-01-08T11:35:42;3.87;;;3.47;;
9960;SDS011;5021;51.506;11.320;2023-01-08T11:38:10;4.13;;;3.73;;
9960;SDS011;5021;51.506;11.320;2023-01-08T11:40:49;4.17;;;3.40;;
9960;SDS011;5021;51.506;11.320;2023-01-08T11:43:27;3.90;;;3.60;;
9960;SDS011;5021;51.506;11.320;2023-01-08T11:53:42;4.43;;;4.03;;
9960;SDS011;5021;51.506;11.320;2023-01-08T12:06:34;5.53;;;4.83;;
9960;SDS011;5021;51.506;11.320;2023-01-08T12:11:35;7.47;;;5.77;;
9960;SDS011;5021;51.506;11.320;2023-01-08T12:14:15;6.77;;;5.17;;
9960;SDS011;5021;51.506;11.320;2023-01-08T12:24:38;4.53;;;3.73;;
9960;SDS011;5021;51.506;11.320;2023-01-08T12:32:12;3.50;;;3.20;;
9960;SDS011;5021;51.506;11.320;2023-01-08T12:39:57;3.50;;;3.20;;
9960;SDS011;5021;51.506;11.320;2023-01-08T12:42:30;3.37;;;3.07;;
9960;SDS011;5021;51.506;11.320;2023-01-08T12:44:57;3.50;;;3.20;;
9960;SDS011;5021;51.506;11.320;2023-01-08T12:47:26;3.37;;;3.07;;
9960;SDS011;5021;51.506;11.320;2023-01-08T12:50:15;3.33;;;3.03;;
9960;SDS011;5021;51.506;11.320;2023-01-08T12:55:37;3.20;;;2.90;;
9960;SDS011;5021;51.506;11.320;2023-01-08T12:58:23;3.43;;;3.07;;
9960;SDS011;5021;51.506;11.320;2023-01-08T13:03:30;3.30;;;2.83;;
9960;SDS011;5021;51.506;11.320;2023-01-08T13:06:04;3.70;;;3.40;;
9960;SDS011;5021;51.506;11.320;2023-01-08T13:08:32;3.60;;;3.20;;
9960;SDS011;5021;51.506;11.320;2023-01-08T13:10:59;3.40;;;3.10;;
9960;SDS011;5021;51.506;11.320;2023-01-08T13:13:32;3.43;;;3.13;;
9960;SDS011;5021;51.506;11.320;2023-01-08T13:16:20;3.50;;;3.20;;
9960;SDS011;5021;51.506;11.320;2023-01-08T13:18:52;3.60;;;3.30;;
9960;SDS011;5021;51.506;11.320;2023-01-08T13:21:25;3.53;;;3.23;;
9960;SDS011;5021;51.506;11.320;2023-01-08T13:23:58;3.40;;;3.10;;
9960;SDS011;5021;51.506;11.320;2023-01-08T13:26:27;3.30;;;3.00;;
9960;SDS011;5021;51.506;11.320;2023-01-08T13:28:54;3.50;;;3.20;;
9960;SDS011;5021;51.506;11.320;2023-01-08T13:31:37;3.63;;;3.00;;
9960;SDS011;5021;51.506;11.320;2023-01-08T13:34:16;3.47;;;3.17;;
9960;SDS011;5021;51.506;11.320;2023-01-08T13:36:53;3.30;;;3.00;;
9960;SDS011;5021;51.506;11.320;2023-01-08T13:39:23;3.47;;;3.17;;
9960;SDS011;5021;51.506;11.320;2023-01-08T13:41:56;3.47;;;3.17;;
9960;SDS011;5021;51.506;11.320;2023-01-08T13:44:35;3.30;;;3.00;;
9960;SDS011;5021;51.506;11.320;2023-01-08T13:47:14;3.07;;;2.77;;
9960;SDS011;5021;51.506;11.320;2023-01-08T13:49:47;2.97;;;2.50;;
9960;SDS011;5021;51.506;11.320;2023-01-08T13:54:53;3.30;;;2.77;;
9960;SDS011;5021;51.506;11.320;2023-01-08T13:57:19;2.70;;;2.50;;
9960;SDS011;5021;51.506;11.320;2023-01-08T13:59:49;2.90;;;2.60;;
9960;SDS011;5021;51.506;11.320;2023-01-08T14:02:20;2.70;;;2.50;;
9960;SDS011;5021;51.506;11.320;2023-01-08T14:04:47;2.70;;;2.50;;
9960;SDS011;5021;51.506;11.320;2023-01-08T14:07:13;3.80;;;2.73;;
9960;SDS011;5021;51.506;11.320;2023-01-08T14:09:39;2.80;;;2.57;;
9960;SDS011;5021;51.506;11.320;2023-01-08T14:12:07;2.73;;;2.40;;
9960;SDS011;5021;51.506;11.320;2023-01-08T14:14:36;3.17;;;2.73;;
9960;SDS011;5021;51.506;11.320;2023-01-08T14:17:03;2.40;;;2.20;;
9960;SDS011;5021;51.506;11.320;2023-01-08T14:19:29;2.50;;;2.30;;
9960;SDS011;5021;51.506;11.320;2023-01-08T14:21:56;2.20;;;2.00;;
9960;SDS011;5021;51.506;11.320;2023-01-08T14:24:23;2.60;;;2.40;;
9960;SDS011;5021;51.506;11.320;2023-01-08T14:26:56;2.57;;;2.37;;
9960;SDS011;5021;51.506;11.320;2023-01-08T14:29:24;2.60;;;2.40;;
9960;SDS011;5021;51.506;11.320;2023-01-08T14:31:54;2.23;;;2.03;;
9960;SDS011;5021;51.506;11.320;2023-01-08T14:34:21;2.20;;;2.00;;
9960;SDS011;5021;51.506;11.320;2023-01-08T14:36:50;2.70;;;2.50;;
9960;SDS011;5021;51.506;11.320;2023-01-08T14:39:24;2.73;;;2.53;;
9960;SDS011;5021;51.506;11.320;2023-01-08T14:41:51;2.30;;;2.10;;
9960;SDS011;5021;51.506;11.320;2023-01-08T14:44:37;2.57;;;2.37;;
9960;SDS011;5021;51.506;11.320;2023-01-08T14:47:03;3.77;;;3.07;;
9960;SDS011;5021;51.506;11.320;2023-01-08T14:49:30;2.83;;;2.53;;
9960;SDS011;5021;51.506;11.320;2023-01-08T14:51:58;3.20;;;2.90;;
9960;SDS011;5021;51.506;11.320;2023-01-08T14:54:31;3.33;;;2.50;;
9960;SDS011;5021;51.506;11.320;2023-01-08T14:56:58;2.57;;;2.37;;
9960;SDS011;5021;51.506;11.320;2023-01-08T14:59:27;2.60;;;2.40;;
9960;SDS011;5021;51.506;11.320;2023-01-08T15:01:55;2.60;;;2.40;;
9960;SDS011;5021;51.506;11.320;2023-01-08T15:04:22;2.33;;;2.00;;
9960;SDS011;5021;51.506;11.320;2023-01-08T15:06:49;2.23;;;2.03;;
9960;SDS011;5021;51.506;11.320;2023-01-08T15:11:49;1.97;;;1.80;;
9960;SDS011;5021;51.506;11.320;2023-01-08T15:14:19;2.47;;;2.00;;
9960;SDS011;5021;51.506;11.320;2023-01-08T15:16:46;2.17;;;1.97;;
9960;SDS011;5021;51.506;11.320;2023-01-08T15:19:16;2.37;;;2.17;;
9960;SDS011;5021;51.506;11.320;2023-01-08T15:21:49;3.93;;;1.87;;
9960;SDS011;5021;51.506;11.320;2023-01-08T15:24:23;2.10;;;1.83;;
9960;SDS011;5021;51.506;11.320;2023-01-08T15:26:50;2.40;;;2.20;;
9960;SDS011;5021;51.506;11.320;2023-01-08T15:29:18;2.50;;;2.10;;
9960;SDS011;5021;51.506;11.320;2023-01-08T15:31:45;1.93;;;1.80;;
9960;SDS011;5021;51.506;11.320;2023-01-08T15:34:11;2.20;;;2.00;;
9960;SDS011;5021;51.506;11.320;2023-01-08T15:36:37;2.67;;;2.30;;
9960;SDS011;5021;51.506;11.320;2023-01-08T15:39:03;3.10;;;2.00;;
9960;SDS011;5021;51.506;11.320;2023-01-08T15:41:33;2.27;;;2.07;;
9960;SDS011;5021;51.506;11.320;2023-01-08T15:44:18;2.13;;;1.93;;
9960;SDS011;5021;51.506;11.320;2023-01-08T15:46:44;2.30;;;2.10;;
9960;SDS011;5021;51.506;11.320;2023-01-08T15:49:10;2.70;;;2.23;;
9960;SDS011;5021;51.506;11.320;2023-01-08T15:51:36;2.50;;;2.30;;
9960;SDS011;5021;51.506;11.320;2023-01-08T15:54:04;2.30;;;2.10;;
9960;SDS011;5021;51.506;11.320;2023-01-08T15:56:30;2.63;;;2.07;;
9960;SDS011;5021;51.506;11.320;2023-01-08T15:58:56;2.23;;;2.03;;
9960;SDS011;5021;51.506;11.320;2023-01-08T16:01:22;3.43;;;2.17;;
9960;SDS011;5021;51.506;11.320;2023-01-08T16:03:48;2.67;;;2.47;;
9960;SDS011;5021;51.506;11.320;2023-01-08T16:06:14;3.13;;;2.30;;
9960;SDS011;5021;51.506;11.320;2023-01-08T16:08:40;2.03;;;1.83;;
9960;SDS011;5021;51.506;11.320;2023-01-08T16:11:09;2.33;;;2.10;;
9960;SDS011;5021;51.506;11.320;2023-01-08T16:13:35;2.20;;;2.00;;
9960;SDS011;5021;51.506;11.320;2023-01-08T16:16:08;2.67;;;2.27;;
9960;SDS011;5021;51.506;11.320;2023-01-08T16:18:34;2.40;;;2.20;;
9960;SDS011;5021;51.506;11.320;2023-01-08T16:21:00;2.63;;;2.43;;